createdAt,value
2019-05-16T00:03:01.317Z,4.35
2019-05-16T00:05:31.123Z,4.50
2019-05-16T00:08:12.416Z,4.00
2019-05-16T00:10:40.034Z,4.90
2019-05-16T00:13:14.651Z,4.37
2019-05-16T00:15:48.093Z,4.03
2019-05-16T00:18:17.841Z,4.33
2019-05-16T00:20:49.122Z,4.83
2019-05-16T00:23:18.252Z,4.67
2019-05-16T00:26:47.867Z,4.30
2019-05-16T00:29:28.703Z,5.13
2019-05-16T00:35:28.589Z,4.90
2019-05-16T00:38:38.003Z,4.53
2019-05-16T00:41:09.426Z,4.90
2019-05-16T00:43:59.239Z,4.85
2019-05-16T00:46:33.947Z,4.43
2019-05-16T00:49:08.116Z,4.90
2019-05-16T00:52:23.572Z,5.20
2019-05-16T00:55:00.916Z,4.50
2019-05-16T00:57:32.247Z,4.90
2019-05-16T01:00:49.439Z,5.22
2019-05-16T01:03:20.419Z,4.90
2019-05-16T01:05:49.238Z,5.43
2019-05-16T01:08:25.164Z,4.73
2019-05-16T01:10:59.928Z,4.80
2019-05-16T01:14:10.955Z,4.50
2019-05-16T01:16:39.683Z,4.47
2019-05-16T01:19:14.145Z,5.20
2019-05-16T01:21:48.235Z,5.27
2019-05-16T01:24:18.618Z,4.70
2019-05-16T01:26:52.908Z,4.87
2019-05-16T01:29:21.805Z,5.17
2019-05-16T01:31:52.538Z,4.90
2019-05-16T01:34:30.252Z,4.43
2019-05-16T01:36:59.185Z,4.93
2019-05-16T01:39:30.848Z,4.90
2019-05-16T01:42:02.649Z,5.22
2019-05-16T01:47:03.347Z,5.47
2019-05-16T01:49:35.232Z,5.90
2019-05-16T01:52:08.514Z,5.57
2019-05-16T01:54:49.244Z,6.07
2019-05-16T01:57:20.999Z,5.00
2019-05-16T02:02:20.543Z,5.37
2019-05-16T02:05:49.257Z,5.67
2019-05-16T02:08:23.855Z,5.63
2019-05-16T02:10:52.642Z,5.77
2019-05-16T02:13:28.633Z,5.33
2019-05-16T02:15:59.305Z,5.83
2019-05-16T02:18:33.952Z,6.00
2019-05-16T02:21:07.736Z,5.97
2019-05-16T02:23:38.204Z,5.90
2019-05-16T02:26:13.043Z,6.45
2019-05-16T02:32:01.578Z,5.63
2019-05-16T02:34:53.420Z,6.33
2019-05-16T02:37:34.412Z,6.40
2019-05-16T02:40:01.228Z,6.57
2019-05-16T02:42:36.277Z,6.20
2019-05-16T02:45:33.824Z,6.67
2019-05-16T02:48:05.744Z,6.27
2019-05-16T02:50:41.433Z,6.57
2019-05-16T02:53:13.504Z,7.27
2019-05-16T02:58:22.812Z,6.67
2019-05-16T03:00:53.902Z,6.57
2019-05-16T03:03:31.680Z,7.70
2019-05-16T03:06:01.465Z,6.77
2019-05-16T03:08:32.166Z,7.60
2019-05-16T03:11:04.297Z,6.97
2019-05-16T03:13:35.968Z,7.37
2019-05-16T03:16:11.763Z,7.05
2019-05-16T03:18:41.648Z,7.33
2019-05-16T03:21:13.272Z,7.23
2019-05-16T03:23:50.592Z,7.47
2019-05-16T03:26:20.970Z,7.63
2019-05-16T03:28:52.363Z,8.20
2019-05-16T03:31:24.883Z,7.90
2019-05-16T03:33:59.850Z,7.33
2019-05-16T03:36:34.776Z,8.27
2019-05-16T03:39:05.194Z,9.13
2019-05-16T03:41:33.779Z,8.13
2019-05-16T03:44:02.424Z,7.87
2019-05-16T03:46:41.372Z,8.50
2019-05-16T03:49:11.531Z,8.40
2019-05-16T03:51:43.420Z,7.93
2019-05-16T03:54:12.624Z,8.13
2019-05-16T03:56:51.383Z,8.60
2019-05-16T03:59:21.553Z,8.77
2019-05-16T04:01:51.195Z,8.10
2019-05-16T04:04:27.549Z,8.40
2019-05-16T04:07:53.045Z,7.77
2019-05-16T04:10:25.321Z,8.50
2019-05-16T04:12:56.573Z,8.00
2019-05-16T04:15:25.299Z,8.23
2019-05-16T04:17:53.954Z,7.97
2019-05-16T04:20:23.311Z,8.30
2019-05-16T04:23:01.601Z,6.90
2019-05-16T04:25:33.299Z,7.43
2019-05-16T04:30:41.520Z,5.87
2019-05-16T04:33:17.297Z,6.50
2019-05-16T04:35:51.808Z,5.97
2019-05-16T04:38:31.590Z,5.62
2019-05-16T04:40:55.576Z,5.55
2019-05-16T04:43:26.228Z,5.28
2019-05-16T04:45:56.045Z,5.33
2019-05-16T04:48:24.631Z,4.90
2019-05-16T04:50:54.325Z,5.35
2019-05-16T04:53:25.742Z,5.25
2019-05-16T04:56:03.768Z,5.12
2019-05-16T04:58:40.729Z,5.53
2019-05-16T05:01:11.076Z,5.12
2019-05-16T05:04:00.601Z,6.20
2019-05-16T05:06:20.611Z,5.67
2019-05-16T05:08:57.107Z,5.78
2019-05-16T05:11:25.099Z,5.92
2019-05-16T05:14:00.939Z,5.87
2019-05-16T05:16:35.525Z,5.53
2019-05-16T05:19:20.034Z,6.05
2019-05-16T05:21:51.423Z,5.70
2019-05-16T05:24:43.910Z,5.60
2019-05-16T05:27:15.505Z,6.08
2019-05-16T05:29:55.408Z,5.90
2019-05-16T05:32:50.248Z,5.87
2019-05-16T05:35:27.253Z,5.55
2019-05-16T05:38:00.383Z,5.47
2019-05-16T05:40:29.671Z,5.37
2019-05-16T05:42:59.914Z,6.25
2019-05-16T05:45:34.918Z,6.28
2019-05-16T05:48:05.723Z,6.25
2019-05-16T05:50:41.358Z,6.00
2019-05-16T05:53:10.285Z,6.50
2019-05-16T05:55:50.659Z,6.65
2019-05-16T05:58:20.829Z,6.67
2019-05-16T06:00:55.392Z,6.20
2019-05-16T06:03:27.124Z,6.37
2019-05-16T06:05:56.299Z,6.50
2019-05-16T06:08:27.645Z,6.45
2019-05-16T06:13:51.194Z,6.17
2019-05-16T06:19:00.930Z,6.20
2019-05-16T06:21:46.050Z,6.08
2019-05-16T06:24:25.059Z,6.28
2019-05-16T06:26:53.877Z,5.70
2019-05-16T06:29:30.804Z,6.05
2019-05-16T06:32:10.165Z,6.50
2019-05-16T06:34:40.470Z,6.10
2019-05-16T06:37:09.819Z,5.92
2019-05-16T06:39:45.557Z,6.12
2019-05-16T06:42:22.078Z,5.67
2019-05-16T06:44:56.639Z,6.12
2019-05-16T06:47:25.287Z,5.95
2019-05-16T06:50:05.885Z,5.53
2019-05-16T06:52:34.915Z,5.65
2019-05-16T06:55:10.333Z,5.50
2019-05-16T06:57:50.479Z,5.08
2019-05-16T07:00:25.097Z,4.58
2019-05-16T07:03:00.419Z,5.58
2019-05-16T07:05:31.960Z,5.40
2019-05-16T07:08:11.170Z,5.35
2019-05-16T07:10:41.593Z,5.37
2019-05-16T07:13:13.467Z,4.60
2019-05-16T07:15:44.773Z,4.62
2019-05-16T07:18:21.475Z,4.58
2019-05-16T07:20:56.114Z,4.50
2019-05-16T07:23:29.858Z,4.65
2019-05-16T07:26:17.443Z,4.25
2019-05-16T07:29:01.281Z,4.40
2019-05-16T07:31:30.212Z,4.05
2019-05-16T07:34:05.125Z,4.67
2019-05-16T07:36:36.948Z,4.65
2019-05-16T07:39:06.172Z,3.95
2019-05-16T07:41:35.347Z,4.42
2019-05-16T07:44:04.094Z,3.95
2019-05-16T07:46:51.624Z,4.28
2019-05-16T07:49:21.709Z,1.98
2019-05-16T07:51:53.181Z,3.80
2019-05-16T07:56:59.419Z,3.77
2019-05-16T07:59:29.927Z,3.90
2019-05-16T08:02:04.783Z,3.75
2019-05-16T08:04:33.612Z,4.35
2019-05-16T08:07:07.647Z,4.40
2019-05-16T08:10:41.319Z,3.90
2019-05-16T08:13:11.910Z,4.62
2019-05-16T08:15:40.678Z,4.55
2019-05-16T08:18:13.325Z,4.45
2019-05-16T08:20:41.943Z,4.80
2019-05-16T08:23:36.839Z,4.80
2019-05-16T08:26:43.153Z,5.25
2019-05-16T08:29:13.406Z,5.00
2019-05-16T08:31:43.446Z,4.53
2019-05-16T08:34:12.500Z,3.10
2019-05-16T08:36:51.855Z,3.20
2019-05-16T08:39:21.569Z,2.60
2019-05-16T08:41:51.918Z,3.22
2019-05-16T08:44:26.665Z,2.70
2019-05-16T08:46:58.329Z,3.83
2019-05-16T08:49:30.729Z,3.50
2019-05-16T08:52:01.331Z,2.80
2019-05-16T08:54:31.765Z,3.10
2019-05-16T08:57:26.098Z,3.10
2019-05-16T08:59:41.081Z,3.00
2019-05-16T09:02:15.409Z,3.17
2019-05-16T09:04:53.271Z,2.65
2019-05-16T09:07:22.578Z,3.22
2019-05-16T09:09:59.774Z,3.17
2019-05-16T09:12:29.377Z,3.15
2019-05-16T09:15:28.966Z,3.15
2019-05-16T09:18:19.923Z,2.80
2019-05-16T09:20:52.582Z,3.33
2019-05-16T09:23:26.836Z,3.25
2019-05-16T09:25:58.497Z,2.50
2019-05-16T09:28:28.248Z,3.40
2019-05-16T09:30:59.256Z,3.27
2019-05-16T09:33:31.244Z,3.45
2019-05-16T09:36:02.874Z,3.58
2019-05-16T09:38:38.059Z,3.62
2019-05-16T09:41:08.521Z,3.35
2019-05-16T09:43:43.140Z,3.70
2019-05-16T09:46:16.974Z,3.60
2019-05-16T09:49:11.649Z,3.07
2019-05-16T09:51:21.537Z,3.92
2019-05-16T09:53:56.688Z,4.15
2019-05-16T09:56:27.002Z,3.50
2019-05-16T09:58:57.405Z,4.00
2019-05-16T10:01:27.732Z,4.10
2019-05-16T10:04:06.514Z,4.22
2019-05-16T10:06:36.922Z,4.30
2019-05-16T10:09:08.794Z,4.87
2019-05-16T10:11:42.262Z,4.92
2019-05-16T10:14:11.492Z,5.22
2019-05-16T10:16:47.756Z,2.95
2019-05-16T10:19:16.970Z,5.28
2019-05-16T10:22:10.696Z,4.30
2019-05-16T10:24:39.382Z,4.37
2019-05-16T10:27:10.704Z,4.60
2019-05-16T10:29:48.708Z,4.85
2019-05-16T10:32:19.303Z,4.33
2019-05-16T10:38:20.070Z,4.97
2019-05-16T10:40:58.691Z,4.25
2019-05-16T10:43:27.602Z,3.85
2019-05-16T10:46:17.952Z,3.85
2019-05-16T10:52:07.072Z,4.17
2019-05-16T10:57:21.569Z,3.72
2019-05-16T11:00:06.809Z,2.60
2019-05-16T11:02:29.966Z,3.45
2019-05-16T11:05:20.630Z,3.50
2019-05-16T11:07:36.870Z,3.35
2019-05-16T11:10:08.135Z,3.55
2019-05-16T11:12:50.675Z,3.60
2019-05-16T11:15:17.230Z,3.12
2019-05-16T11:17:48.852Z,3.20
2019-05-16T11:23:22.257Z,3.05
2019-05-16T11:26:09.553Z,3.40
2019-05-16T11:28:41.282Z,2.75
2019-05-16T11:31:46.931Z,3.47
2019-05-16T11:34:21.472Z,2.87
2019-05-16T11:36:56.998Z,3.62
2019-05-16T11:39:25.975Z,3.98
2019-05-16T11:41:58.526Z,3.90
2019-05-16T11:44:31.348Z,3.60
2019-05-16T11:47:08.297Z,3.52
2019-05-16T11:49:39.296Z,4.08
2019-05-16T11:52:07.867Z,4.35
2019-05-16T11:54:49.113Z,3.85
2019-05-16T11:57:19.886Z,4.05
2019-05-16T11:59:49.165Z,4.20
2019-05-16T12:02:18.053Z,4.60
2019-05-16T12:04:52.996Z,4.00
2019-05-16T12:07:33.318Z,4.35
2019-05-16T12:10:29.244Z,4.28
2019-05-16T12:13:28.173Z,4.10
2019-05-16T12:15:56.610Z,4.08
2019-05-16T12:18:26.755Z,4.10
2019-05-16T12:20:56.573Z,4.08
2019-05-16T12:23:27.754Z,3.72
2019-05-16T12:26:02.436Z,3.62
2019-05-16T12:28:32.180Z,4.83
2019-05-16T12:31:03.919Z,4.30
2019-05-16T12:33:38.359Z,4.22
2019-05-16T12:36:12.980Z,4.70
2019-05-16T12:38:47.524Z,4.83
2019-05-16T12:41:20.850Z,5.47
2019-05-16T12:43:53.637Z,4.70
2019-05-16T12:46:23.867Z,3.35
2019-05-16T12:48:58.200Z,4.30
2019-05-16T12:51:27.097Z,4.97
2019-05-16T12:54:01.783Z,5.08
2019-05-16T12:56:32.445Z,4.85
2019-05-16T12:59:28.123Z,5.42
2019-05-16T13:02:00.209Z,5.25
2019-05-16T13:04:57.116Z,5.28
2019-05-16T13:07:27.405Z,4.65
2019-05-16T13:10:02.405Z,4.70
2019-05-16T13:12:31.168Z,2.22
2019-05-16T13:15:07.072Z,4.72
2019-05-16T13:17:37.167Z,4.20
2019-05-16T13:20:14.129Z,4.17
2019-05-16T13:22:42.802Z,3.25
2019-05-16T13:25:14.263Z,3.80
2019-05-16T13:30:21.672Z,3.90
2019-05-16T13:32:50.276Z,3.22
2019-05-16T13:35:22.380Z,2.80
2019-05-16T13:37:58.011Z,3.80
2019-05-16T13:40:32.556Z,4.33
2019-05-16T13:43:09.498Z,4.45
2019-05-16T13:45:37.899Z,2.77
2019-05-16T13:48:12.586Z,4.12
2019-05-16T13:50:41.434Z,3.85
2019-05-16T13:53:13.395Z,4.00
2019-05-16T13:55:48.009Z,4.67
2019-05-16T13:58:17.913Z,4.45
2019-05-16T14:00:50.527Z,4.22
2019-05-16T14:03:27.531Z,3.95
2019-05-16T14:05:58.029Z,4.67
2019-05-16T14:08:26.853Z,5.50
2019-05-16T14:11:00.748Z,5.65
2019-05-16T14:13:27.862Z,5.28
2019-05-16T14:15:58.445Z,5.60
2019-05-16T14:18:29.805Z,5.20
2019-05-16T14:23:38.230Z,5.20
2019-05-16T14:26:13.143Z,5.60
2019-05-16T14:28:44.512Z,5.20
2019-05-16T14:31:12.428Z,5.67
2019-05-16T14:33:47.526Z,4.95
2019-05-16T14:36:19.317Z,5.62
2019-05-16T14:38:54.147Z,5.20
2019-05-16T14:41:37.361Z,5.47
2019-05-16T14:44:09.546Z,5.08
2019-05-16T14:47:23.586Z,5.67
2019-05-16T14:49:58.524Z,5.15
2019-05-16T14:52:36.648Z,5.90
2019-05-16T14:55:08.971Z,5.30
2019-05-16T14:57:37.605Z,5.97
2019-05-16T15:00:08.662Z,5.60
2019-05-16T15:02:38.710Z,5.70
2019-05-16T15:05:24.510Z,5.95
2019-05-16T15:07:56.938Z,6.28
2019-05-16T15:10:28.893Z,5.83
2019-05-16T15:12:59.655Z,6.67
2019-05-16T15:19:25.871Z,5.72
2019-05-16T15:22:02.890Z,6.58
2019-05-16T15:24:36.911Z,6.05
2019-05-16T15:27:07.916Z,6.37
2019-05-16T15:29:37.759Z,7.43
2019-05-16T15:32:08.487Z,6.70
2019-05-16T15:34:47.665Z,6.83
2019-05-16T15:37:17.545Z,6.28
2019-05-16T15:39:54.331Z,5.65
2019-05-16T15:43:11.570Z,2.75
2019-05-16T15:45:49.900Z,6.12
2019-05-16T15:48:37.456Z,6.58
2019-05-16T15:51:08.986Z,5.83
2019-05-16T15:53:44.159Z,6.37
2019-05-16T15:56:13.219Z,4.58
2019-05-16T15:58:52.016Z,5.12
2019-05-16T16:01:26.898Z,6.85
2019-05-16T16:04:00.702Z,6.10
2019-05-16T16:06:30.170Z,6.17
2019-05-16T16:09:13.347Z,6.53
2019-05-16T16:11:48.733Z,5.92
2019-05-16T16:14:23.227Z,5.90
2019-05-16T16:17:06.733Z,5.72
2019-05-16T16:19:38.293Z,5.62
2019-05-16T16:22:07.753Z,5.55
2019-05-16T16:24:39.644Z,6.00
2019-05-16T16:27:16.584Z,3.33
2019-05-16T16:29:44.897Z,5.40
2019-05-16T16:32:38.005Z,5.40
2019-05-16T16:35:07.937Z,6.15
2019-05-16T16:38:09.926Z,5.67
2019-05-16T16:40:47.795Z,5.83
2019-05-16T16:43:43.343Z,6.30
2019-05-16T16:46:27.112Z,5.42
2019-05-16T16:49:11.152Z,6.10
2019-05-16T16:51:43.049Z,6.42
2019-05-16T16:54:18.268Z,6.62
2019-05-16T16:56:49.902Z,6.37
2019-05-16T16:59:19.304Z,5.17
2019-05-16T17:01:48.064Z,4.87
2019-05-16T17:04:19.951Z,5.65
2019-05-16T17:06:51.309Z,5.72
2019-05-16T17:09:23.205Z,5.30
2019-05-16T17:12:01.724Z,4.15
2019-05-16T17:14:38.862Z,4.70
2019-05-16T17:17:46.637Z,6.37
2019-05-16T17:20:16.598Z,6.03
2019-05-16T17:22:57.265Z,5.03
2019-05-16T17:25:30.793Z,5.15
2019-05-16T17:28:07.930Z,5.70
2019-05-16T17:30:36.935Z,4.97
2019-05-16T17:33:10.226Z,5.30
2019-05-16T17:39:21.728Z,3.77
2019-05-16T17:41:54.996Z,2.57
2019-05-16T17:44:29.087Z,5.47
2019-05-16T17:47:08.444Z,5.20
2019-05-16T17:49:37.290Z,5.22
2019-05-16T17:52:16.561Z,5.75
2019-05-16T17:54:53.168Z,5.30
2019-05-16T17:57:20.441Z,5.00
2019-05-16T17:59:57.249Z,5.80
2019-05-16T18:02:37.784Z,4.85
2019-05-16T18:05:47.244Z,5.80
2019-05-16T18:08:38.991Z,7.10
2019-05-16T18:11:10.888Z,5.97
2019-05-16T18:13:43.232Z,6.42
2019-05-16T18:16:18.160Z,5.97
2019-05-16T18:19:10.855Z,7.97
2019-05-16T18:21:46.408Z,5.80
2019-05-16T18:24:19.421Z,5.85
2019-05-16T18:26:51.264Z,4.58
2019-05-16T18:29:19.897Z,5.92
2019-05-16T18:31:51.204Z,5.95
2019-05-16T18:34:29.163Z,5.17
2019-05-16T18:37:02.031Z,5.35
2019-05-16T18:39:38.313Z,4.90
2019-05-16T18:42:22.037Z,2.85
2019-05-16T18:48:23.708Z,4.75
2019-05-16T18:51:08.102Z,5.28
2019-05-16T18:53:42.909Z,6.20
2019-05-16T18:56:12.854Z,4.10
2019-05-16T18:58:46.441Z,5.78
2019-05-16T19:01:29.667Z,5.08
2019-05-16T19:04:46.549Z,5.83
2019-05-16T19:07:31.086Z,6.00
2019-05-16T19:10:26.967Z,5.45
2019-05-16T19:12:59.817Z,6.10
2019-05-16T19:15:48.953Z,5.75
2019-05-16T19:18:19.705Z,6.03
2019-05-16T19:20:51.325Z,5.53
2019-05-16T19:23:21.939Z,6.33
2019-05-16T19:26:00.284Z,5.50
2019-05-16T19:28:32.592Z,11.15
2019-05-16T19:31:03.591Z,15.65
2019-05-16T19:33:35.209Z,6.08
2019-05-16T19:36:07.308Z,5.30
2019-05-16T19:38:37.413Z,4.90
2019-05-16T19:41:08.091Z,5.30
2019-05-16T19:43:37.464Z,4.53
2019-05-16T19:46:09.008Z,4.80
2019-05-16T19:51:21.205Z,5.60
2019-05-16T19:54:36.472Z,5.20
2019-05-16T19:57:37.207Z,4.95
2019-05-16T20:00:11.263Z,5.15
2019-05-16T20:03:08.702Z,5.00
2019-05-16T20:05:40.176Z,4.90
2019-05-16T20:08:12.640Z,5.55
2019-05-16T20:10:43.931Z,4.85
2019-05-16T20:14:04.390Z,5.17
2019-05-16T20:16:38.787Z,5.30
2019-05-16T20:19:13.536Z,5.12
2019-05-16T20:21:43.229Z,5.08
2019-05-16T20:24:16.733Z,5.05
2019-05-16T20:26:47.894Z,5.20
2019-05-16T20:29:27.820Z,5.00
2019-05-16T20:32:27.590Z,5.00
2019-05-16T20:35:02.768Z,4.78
2019-05-16T20:37:33.923Z,5.30
2019-05-16T20:40:08.447Z,5.17
2019-05-16T20:42:39.585Z,5.67
2019-05-16T20:45:17.000Z,5.15
2019-05-16T20:47:46.836Z,5.22
2019-05-16T20:50:20.916Z,5.53
2019-05-16T20:52:49.903Z,5.60
2019-05-16T20:55:21.194Z,5.50
2019-05-16T20:57:54.354Z,4.92
2019-05-16T21:00:26.805Z,5.60
2019-05-16T21:03:01.565Z,5.05
2019-05-16T21:05:31.249Z,5.12
2019-05-16T21:08:06.569Z,4.72
2019-05-16T21:10:36.609Z,4.92
2019-05-16T21:13:11.161Z,5.50
2019-05-16T21:15:41.978Z,4.80
2019-05-16T21:18:16.721Z,5.47
2019-05-16T21:20:52.025Z,5.45
2019-05-16T21:23:27.252Z,5.37
2019-05-16T21:25:57.153Z,5.25
2019-05-16T21:28:26.376Z,5.60
2019-05-16T21:30:57.376Z,5.72
2019-05-16T21:33:27.236Z,5.60
2019-05-16T21:36:02.836Z,6.05
2019-05-16T21:38:37.402Z,6.67
2019-05-16T21:41:26.981Z,6.42
2019-05-16T21:44:29.412Z,6.17
2019-05-16T21:47:01.797Z,6.53
2019-05-16T21:49:56.838Z,6.83
2019-05-16T21:52:50.074Z,6.47
2019-05-16T21:55:21.517Z,5.67
2019-05-16T21:57:53.175Z,6.65
2019-05-16T22:00:30.664Z,6.40
2019-05-16T22:03:02.492Z,7.22
2019-05-16T22:05:33.800Z,7.53
2019-05-16T22:08:07.220Z,7.00
2019-05-16T22:10:41.518Z,5.47
2019-05-16T22:13:10.430Z,6.53
2019-05-16T22:15:46.451Z,6.58
2019-05-16T22:18:18.431Z,6.70
2019-05-16T22:20:52.006Z,7.33
2019-05-16T22:23:27.224Z,6.35
2019-05-16T22:25:57.001Z,6.80
2019-05-16T22:28:31.523Z,5.35
2019-05-16T22:31:00.228Z,6.47
2019-05-16T22:33:31.627Z,7.37
2019-05-16T22:36:02.216Z,7.05
2019-05-16T22:38:40.221Z,5.20
2019-05-16T22:41:17.086Z,6.80
2019-05-16T22:43:46.741Z,6.35
2019-05-16T22:46:21.369Z,6.50
2019-05-16T22:48:50.031Z,6.75
2019-05-16T22:51:22.419Z,6.87
2019-05-16T22:56:22.414Z,6.30
2019-05-16T22:58:57.428Z,8.83
2019-05-16T23:01:27.159Z,12.23
2019-05-16T23:03:58.405Z,17.62
2019-05-16T23:06:31.477Z,7.03
2019-05-16T23:09:04.209Z,11.45
2019-05-16T23:11:36.316Z,9.48
2019-05-16T23:14:08.028Z,8.68
2019-05-16T23:19:14.035Z,6.90
2019-05-16T23:21:47.256Z,7.70
2019-05-16T23:24:17.422Z,8.10
2019-05-16T23:26:51.355Z,8.00
2019-05-16T23:29:22.427Z,9.10
2019-05-16T23:32:00.040Z,8.13
2019-05-16T23:34:29.777Z,7.40
2019-05-16T23:37:27.675Z,8.25
2019-05-16T23:39:59.555Z,7.78
2019-05-16T23:45:18.036Z,8.05
2019-05-16T23:48:18.312Z,8.27
2019-05-16T23:50:51.576Z,7.75
2019-05-16T23:53:31.501Z,8.40
2019-05-16T23:56:18.670Z,8.25
2019-05-16T23:58:56.842Z,6.90
